createdAt,value
2022-11-12T00:01:10.087Z,24
2022-11-12T00:06:11.825Z,30
2022-11-12T00:11:13.469Z,24
2022-11-12T00:16:15.229Z,23
2022-11-12T00:21:17.021Z,20
2022-11-12T00:26:18.639Z,23
2022-11-12T00:31:20.383Z,24
2022-11-12T00:36:22.060Z,23
2022-11-12T00:41:23.714Z,24
2022-11-12T00:46:25.364Z,21
2022-11-12T00:51:27.021Z,24
2022-11-12T00:56:32.986Z,23
2022-11-12T01:01:37.107Z,17
2022-11-12T01:06:39.070Z,23
2022-11-12T01:11:40.831Z,17
2022-11-12T01:16:42.588Z,24
2022-11-12T01:21:44.510Z,22
2022-11-12T01:26:46.249Z,22
2022-11-12T01:31:47.849Z,17
2022-11-12T01:36:49.450Z,23
2022-11-12T01:41:51.135Z,19
2022-11-12T01:46:52.798Z,23
2022-11-12T01:51:54.434Z,20
2022-11-12T01:56:56.160Z,31
2022-11-12T02:01:57.826Z,24
2022-11-12T02:06:59.564Z,17
2022-11-12T02:12:01.286Z,24
2022-11-12T02:17:02.996Z,19
2022-11-12T02:22:04.630Z,34
2022-11-12T02:27:06.314Z,34
2022-11-12T02:32:07.990Z,31
2022-11-12T02:37:09.621Z,31
2022-11-12T02:42:11.219Z,28
2022-11-12T02:47:12.944Z,28
2022-11-12T02:52:14.542Z,23
2022-11-12T02:57:16.116Z,39
2022-11-12T03:02:17.836Z,36
2022-11-12T03:07:19.592Z,33
2022-11-12T03:12:21.225Z,25
2022-11-12T03:17:22.893Z,33
2022-11-12T03:22:24.552Z,23
2022-11-12T03:27:26.231Z,25
2022-11-12T03:32:27.970Z,34
2022-11-12T03:37:29.602Z,33
2022-11-12T03:42:31.236Z,27
2022-11-12T03:47:32.987Z,30
2022-11-12T03:52:34.650Z,30
2022-11-12T03:57:36.306Z,27
2022-11-12T04:02:37.984Z,26
2022-11-12T04:07:39.671Z,26
2022-11-12T04:12:41.284Z,29
2022-11-12T04:17:43.031Z,33
2022-11-12T04:22:44.688Z,26
2022-11-12T04:27:46.435Z,22
2022-11-12T04:32:48.172Z,26
2022-11-12T04:37:49.923Z,29
2022-11-12T04:42:51.559Z,33
2022-11-12T04:47:53.239Z,31
2022-11-12T04:52:54.896Z,23
2022-11-12T04:58:00.576Z,19
2022-11-12T05:03:02.810Z,24
2022-11-12T05:08:04.424Z,20
2022-11-12T05:13:06.142Z,22
2022-11-12T05:18:08.111Z,19
2022-11-12T05:23:09.868Z,21
2022-11-12T05:28:11.561Z,24
2022-11-12T05:33:13.217Z,27
2022-11-12T05:38:14.891Z,13
2022-11-12T05:43:16.541Z,32
2022-11-12T05:48:23.993Z,17
2022-11-12T05:53:26.463Z,22
2022-11-12T05:58:28.471Z,22
2022-11-12T06:03:30.305Z,21
2022-11-12T06:08:32.012Z,21
2022-11-12T06:13:33.663Z,17
2022-11-12T06:18:35.607Z,17
2022-11-12T06:23:37.281Z,20
2022-11-12T06:28:39.056Z,21
2022-11-12T06:33:40.793Z,17
2022-11-12T06:38:42.451Z,15
2022-11-12T06:43:44.211Z,18
2022-11-12T06:48:45.876Z,17
2022-11-12T06:53:47.564Z,18
2022-11-12T06:58:49.354Z,23
2022-11-12T07:03:51.197Z,23
2022-11-12T07:08:52.855Z,23
2022-11-12T07:13:54.526Z,23
2022-11-12T07:18:56.114Z,23
2022-11-12T07:23:58.007Z,22
2022-11-12T07:28:59.603Z,24
2022-11-12T07:34:01.315Z,21
2022-11-12T07:39:02.988Z,27
2022-11-12T07:44:04.637Z,25
2022-11-12T07:49:06.484Z,24
2022-11-12T07:54:08.169Z,25
2022-11-12T07:59:09.833Z,29
2022-11-12T08:04:11.491Z,36
2022-11-12T08:09:13.288Z,33
2022-11-12T08:14:15.323Z,37
2022-11-12T08:19:17.259Z,36
2022-11-12T08:24:19.232Z,34
2022-11-12T08:29:20.997Z,40
2022-11-12T08:34:23.004Z,43
2022-11-12T08:39:24.835Z,43
2022-11-12T08:44:26.534Z,41
2022-11-12T08:49:28.195Z,49
2022-11-12T08:54:30.047Z,65
2022-11-12T08:59:31.966Z,72
2022-11-12T09:04:33.621Z,56
2022-11-12T09:09:35.301Z,59
2022-11-12T09:14:36.914Z,63
2022-11-12T09:19:42.699Z,49
2022-11-12T09:24:44.752Z,48
2022-11-12T09:29:46.458Z,40
2022-11-12T09:34:48.174Z,39
2022-11-12T09:39:49.856Z,31
2022-11-12T09:44:51.519Z,45
2022-11-12T09:49:53.190Z,33
2022-11-12T09:54:55.059Z,45
2022-11-12T09:59:56.716Z,35
2022-11-12T10:04:58.348Z,34
2022-11-12T10:10:00.148Z,25
2022-11-12T10:15:01.796Z,36
2022-11-12T10:20:04.474Z,28
2022-11-12T10:25:06.042Z,26
2022-11-12T10:30:08.644Z,34
2022-11-12T10:35:10.261Z,27
2022-11-12T10:40:11.874Z,37
2022-11-12T10:45:13.629Z,26
2022-11-12T10:50:15.274Z,30
2022-11-12T10:55:16.968Z,22
2022-11-12T11:00:18.660Z,29
2022-11-12T11:05:20.294Z,29
2022-11-12T11:10:21.965Z,29
2022-11-12T11:15:23.654Z,26
2022-11-12T11:20:25.279Z,29
2022-11-12T11:25:26.938Z,31
2022-11-12T11:30:28.599Z,25
2022-11-12T11:35:30.196Z,27
2022-11-12T11:40:31.761Z,30
2022-11-12T11:45:33.419Z,29
2022-11-12T11:50:35.091Z,21
2022-11-12T11:55:36.742Z,28
2022-11-12T12:00:38.368Z,22
2022-11-12T12:05:39.993Z,26
2022-11-12T12:11:06.320Z,28
2022-11-12T12:16:09.832Z,24
2022-11-12T12:21:11.485Z,27
2022-11-12T12:26:13.331Z,25
2022-11-12T12:31:15.578Z,30
2022-11-12T12:36:17.312Z,23
2022-11-12T12:41:19.017Z,30
2022-11-12T12:46:20.744Z,24
2022-11-12T12:51:22.619Z,24
2022-11-12T12:56:24.501Z,28
2022-11-12T13:01:26.151Z,27
2022-11-12T13:06:28.023Z,23
2022-11-12T13:11:29.787Z,26
2022-11-12T13:16:31.462Z,30
2022-11-12T13:21:33.104Z,31
2022-11-12T13:26:34.692Z,21
2022-11-12T13:31:36.267Z,27
2022-11-12T13:36:38.186Z,35
2022-11-12T13:41:39.844Z,40
2022-11-12T13:46:41.457Z,31
2022-11-12T13:51:43.057Z,37
2022-11-12T13:56:45.190Z,35
2022-11-12T14:01:46.807Z,30
2022-11-12T14:06:48.448Z,31
2022-11-12T14:11:50.161Z,35
2022-11-12T14:16:51.862Z,27
2022-11-12T14:21:53.543Z,31
2022-11-12T14:26:55.279Z,20
2022-11-12T14:31:56.949Z,30
2022-11-12T14:36:58.792Z,33
2022-11-12T14:42:00.589Z,24
2022-11-12T14:47:02.254Z,33
2022-11-12T14:52:03.863Z,35
2022-11-12T14:57:05.464Z,30
2022-11-12T15:02:31.687Z,40
2022-11-12T15:07:39.399Z,31
2022-11-12T15:12:41.258Z,30
2022-11-12T15:17:43.551Z,29
2022-11-12T15:22:45.156Z,29
2022-11-12T15:27:46.914Z,29
2022-11-12T15:32:48.569Z,40
2022-11-12T15:37:50.275Z,33
2022-11-12T15:42:51.998Z,25
2022-11-12T15:47:53.765Z,38
2022-11-12T15:52:55.362Z,34
2022-11-12T15:57:56.969Z,27
2022-11-12T16:02:58.704Z,25
2022-11-12T16:08:00.376Z,32
2022-11-12T16:13:02.062Z,28
2022-11-12T16:18:03.642Z,22
2022-11-12T16:23:05.281Z,31
2022-11-12T16:28:06.983Z,22
2022-11-12T16:33:08.604Z,18
2022-11-12T16:38:10.291Z,20
2022-11-12T16:43:11.882Z,22
2022-11-12T16:48:13.437Z,21
2022-11-12T16:53:15.046Z,21
2022-11-12T16:58:16.780Z,18
2022-11-12T17:03:18.668Z,18
2022-11-12T17:08:20.287Z,22
2022-11-12T17:13:21.920Z,18
2022-11-12T17:18:23.570Z,18
2022-11-12T17:23:25.557Z,23
2022-11-12T17:28:27.433Z,23
2022-11-12T17:33:29.442Z,26
2022-11-12T17:38:31.281Z,23
2022-11-12T17:43:32.899Z,27
2022-11-12T17:48:34.488Z,30
2022-11-12T17:53:36.101Z,22
2022-11-12T17:58:37.884Z,22
2022-11-12T18:03:39.479Z,22
2022-11-12T18:08:41.113Z,17
2022-11-12T18:13:42.733Z,22
2022-11-12T18:18:44.336Z,21
2022-11-12T18:23:45.998Z,19
2022-11-12T18:28:47.631Z,18
2022-11-12T18:33:49.404Z,15
2022-11-12T18:38:51.059Z,15
2022-11-12T18:43:52.737Z,19
2022-11-12T18:48:54.365Z,13
2022-11-12T18:53:56.127Z,14
2022-11-12T18:58:57.748Z,21
2022-11-12T19:03:59.395Z,19
2022-11-12T19:09:01.073Z,14
2022-11-12T19:14:02.692Z,19
2022-11-12T19:19:04.400Z,19
2022-11-12T19:24:06.022Z,17
2022-11-12T19:29:07.867Z,15
2022-11-12T19:34:09.494Z,13
2022-11-12T19:39:11.150Z,21
2022-11-12T19:44:12.775Z,15
2022-11-12T19:49:14.385Z,19
2022-11-12T19:54:16.080Z,17
2022-11-12T19:59:17.692Z,22
2022-11-12T20:04:24.030Z,24
2022-11-12T20:09:26.288Z,20
2022-11-12T20:14:27.986Z,25
2022-11-12T20:19:29.675Z,22
2022-11-12T20:24:31.414Z,19
2022-11-12T20:29:33.097Z,15
2022-11-12T20:34:35.997Z,25
2022-11-12T20:39:37.625Z,17
2022-11-12T20:44:39.240Z,18
2022-11-12T20:49:40.849Z,19
2022-11-12T20:54:42.510Z,13
2022-11-12T20:59:44.195Z,13
2022-11-12T21:04:45.811Z,14
2022-11-12T21:09:47.715Z,15
2022-11-12T21:14:50.590Z,19
2022-11-12T21:19:53.044Z,21
2022-11-12T21:24:54.679Z,17
2022-11-12T21:29:56.357Z,11
2022-11-12T21:34:58.013Z,14
2022-11-12T21:39:59.679Z,13
2022-11-12T21:45:01.645Z,11
2022-11-12T21:50:03.337Z,14
2022-11-12T21:55:05.114Z,18
2022-11-12T22:00:39.282Z,15
2022-11-12T22:05:42.603Z,14
2022-11-12T22:10:44.454Z,16
2022-11-12T22:15:46.215Z,15
2022-11-12T22:20:48.065Z,14
2022-11-12T22:25:49.892Z,11
2022-11-12T22:30:51.518Z,17
2022-11-12T22:35:53.285Z,9
2022-11-12T22:40:55.090Z,13
2022-11-12T22:45:56.782Z,14
2022-11-12T22:50:58.670Z,11
2022-11-12T22:56:00.378Z,10
2022-11-12T23:01:02.077Z,11
2022-11-12T23:06:03.802Z,17
2022-11-12T23:11:07.139Z,10
2022-11-12T23:16:08.873Z,13
2022-11-12T23:21:10.886Z,14
2022-11-12T23:26:12.773Z,14
2022-11-12T23:31:14.488Z,17
2022-11-12T23:36:16.110Z,11
2022-11-12T23:41:17.800Z,10
2022-11-12T23:46:19.536Z,12
2022-11-12T23:51:21.168Z,21
2022-11-12T23:56:23.655Z,14
